Portada
METAR-TAF:

METAR-TAF

Aeropuertos :

Grenchen, Suiza

latitud: 47-10-53N, longitud: 007-24-59E, altitud: 430 m

Observación

El informe se hizo hace 36 minutos, a las 18:50 UTC
Viento 5 kt del noreste
Temperatura 14°C
Humedad 55%
Presión 1018 hPa
Visibilidad 10 km o más

METAR: LSZG 301850Z AUTO 04005KT 9999 NSC 14/05 Q1018

Hora: 21:26 (19:26 UTC)

Pronóstico

El informe se hizo hace 5 horas y 1 minutos, a las 14:25 UTC
Pronóstico válido del 30 a las 15 UTC al 30 a las 24 UTC
Viento 12 kt del este
Visibilidad 10 km o más
Escasas nubes a una altura de 5000 ft
Temporalmente
del 30 a las 15 UTC al 30 a las 21 UTC
Viento 15 kt del este-noreste con ráfagas de 25 kt

TAF: LSZG 301425Z 3015/3024 08012KT 9999 FEW050 TEMPO 3015/3021 07015G25KT

Observaciones y pronósticos meteorológicos de más de 4000 aeropuertos (mensajes METAR y TAF).

Los puntos amarillos y rojos representan las estaciones disponibles.

Ponga el ratón en el punto deseado para ver el nombre de la estación.

Haga clic para ver las observaciones y los pronósticos meteorológicos.

Para cambiar el mapa : haga clic en los botones verdes con una cruz de color negro para hacer un zoom, en el botón verde con un guión para alejar o en las flechas verdes para mapas adyacentes.


METAR-TAF: